sensor_id;sensor_type;location;lat;lon;timestamp;temperature;humidity
19945;DHT22;10134;50.952;6.930;2022-12-29T00:00:05;11.80;99.90
19945;DHT22;10134;50.952;6.930;2022-12-29T00:02:39;11.80;99.90
19945;DHT22;10134;50.952;6.930;2022-12-29T00:05:07;11.80;99.90
19945;DHT22;10134;50.952;6.930;2022-12-29T00:07:34;11.80;99.90
19945;DHT22;10134;50.952;6.930;2022-12-29T00:10:02;11.80;99.90
19945;DHT22;10134;50.952;6.930;2022-12-29T00:12:29;11.80;99.90
19945;DHT22;10134;50.952;6.930;2022-12-29T00:15:16;11.80;99.90
19945;DHT22;10134;50.952;6.930;2022-12-29T00:18:02;11.80;99.90
19945;DHT22;10134;50.952;6.930;2022-12-29T00:20:33;11.80;99.90
19945;DHT22;10134;50.952;6.930;2022-12-29T00:23:20;11.80;99.90
19945;DHT22;10134;50.952;6.930;2022-12-29T00:26:15;11.80;99.90
19945;DHT22;10134;50.952;6.930;2022-12-29T00:29:02;11.80;99.90
19945;DHT22;10134;50.952;6.930;2022-12-29T00:31:48;11.80;99.90
19945;DHT22;10134;50.952;6.930;2022-12-29T00:34:34;11.80;99.90
19945;DHT22;10134;50.952;6.930;2022-12-29T00:37:20;11.80;99.90
19945;DHT22;10134;50.952;6.930;2022-12-29T00:40:08;11.80;99.90
19945;DHT22;10134;50.952;6.930;2022-12-29T00:42:54;11.80;99.90
19945;DHT22;10134;50.952;6.930;2022-12-29T00:45:41;11.90;99.90
19945;DHT22;10134;50.952;6.930;2022-12-29T00:48:08;11.90;99.90
19945;DHT22;10134;50.952;6.930;2022-12-29T00:50:36;11.80;99.90
19945;DHT22;10134;50.952;6.930;2022-12-29T00:53:03;11.80;99.90
19945;DHT22;10134;50.952;6.930;2022-12-29T00:55:30;11.90;99.90
19945;DHT22;10134;50.952;6.930;2022-12-29T00:57:58;11.90;99.90
19945;DHT22;10134;50.952;6.930;2022-12-29T01:00:25;11.90;99.90
19945;DHT22;10134;50.952;6.930;2022-12-29T01:02:52;11.90;99.90
19945;DHT22;10134;50.952;6.930;2022-12-29T01:05:20;11.90;99.90
19945;DHT22;10134;50.952;6.930;2022-12-29T01:07:47;11.90;99.90
19945;DHT22;10134;50.952;6.930;2022-12-29T01:10:14;12.00;99.90
19945;DHT22;10134;50.952;6.930;2022-12-29T01:12:42;12.00;99.90
19945;DHT22;10134;50.952;6.930;2022-12-29T01:15:13;12.00;99.90
19945;DHT22;10134;50.952;6.930;2022-12-29T01:17:41;12.00;99.90
19945;DHT22;10134;50.952;6.930;2022-12-29T01:20:09;12.00;99.90
19945;DHT22;10134;50.952;6.930;2022-12-29T01:22:38;12.00;99.90
19945;DHT22;10134;50.952;6.930;2022-12-29T01:25:06;12.10;99.90
19945;DHT22;10134;50.952;6.930;2022-12-29T01:27:34;12.10;99.90
19945;DHT22;10134;50.952;6.930;2022-12-29T01:30:01;12.10;99.90
19945;DHT22;10134;50.952;6.930;2022-12-29T01:32:31;12.10;99.90
19945;DHT22;10134;50.952;6.930;2022-12-29T01:34:58;12.10;99.90
19945;DHT22;10134;50.952;6.930;2022-12-29T01:37:26;12.10;99.90
19945;DHT22;10134;50.952;6.930;2022-12-29T01:39:53;12.10;99.90
19945;DHT22;10134;50.952;6.930;2022-12-29T01:42:24;12.20;99.90
19945;DHT22;10134;50.952;6.930;2022-12-29T01:44:58;12.20;99.90
19945;DHT22;10134;50.952;6.930;2022-12-29T01:47:46;12.20;99.90
19945;DHT22;10134;50.952;6.930;2022-12-29T01:50:27;12.20;99.90
19945;DHT22;10134;50.952;6.930;2022-12-29T01:52:56;12.20;99.90
19945;DHT22;10134;50.952;6.930;2022-12-29T01:55:26;12.30;99.90
19945;DHT22;10134;50.952;6.930;2022-12-29T01:57:56;12.20;99.90
19945;DHT22;10134;50.952;6.930;2022-12-29T02:00:26;12.30;99.90
19945;DHT22;10134;50.952;6.930;2022-12-29T02:02:54;12.30;99.90
19945;DHT22;10134;50.952;6.930;2022-12-29T02:05:42;12.30;99.90
19945;DHT22;10134;50.952;6.930;2022-12-29T02:08:13;12.30;99.90
19945;DHT22;10134;50.952;6.930;2022-12-29T02:10:42;12.30;99.90
19945;DHT22;10134;50.952;6.930;2022-12-29T02:13:10;12.30;99.90
19945;DHT22;10134;50.952;6.930;2022-12-29T02:44:04;12.40;99.90
19945;DHT22;10134;50.952;6.930;2022-12-29T02:46:45;12.40;99.90
19945;DHT22;10134;50.952;6.930;2022-12-29T02:49:30;12.40;99.90
19945;DHT22;10134;50.952;6.930;2022-12-29T02:52:15;12.40;99.90
19945;DHT22;10134;50.952;6.930;2022-12-29T02:54:43;12.50;99.90
19945;DHT22;10134;50.952;6.930;2022-12-29T02:57:36;12.50;99.90
19945;DHT22;10134;50.952;6.930;2022-12-29T03:05:55;12.50;99.90
19945;DHT22;10134;50.952;6.930;2022-12-29T03:08:48;12.50;99.90
19945;DHT22;10134;50.952;6.930;2022-12-29T03:11:16;12.50;99.90
19945;DHT22;10134;50.952;6.930;2022-12-29T03:14:11;12.50;99.90
19945;DHT22;10134;50.952;6.930;2022-12-29T03:17:01;12.50;99.90
19945;DHT22;10134;50.952;6.930;2022-12-29T03:19:45;12.60;99.90
19945;DHT22;10134;50.952;6.930;2022-12-29T03:22:19;12.60;99.90
19945;DHT22;10134;50.952;6.930;2022-12-29T03:25:30;12.50;99.90
19945;DHT22;10134;50.952;6.930;2022-12-29T03:28:00;12.50;99.90
19945;DHT22;10134;50.952;6.930;2022-12-29T03:30:31;12.50;99.90
19945;DHT22;10134;50.952;6.930;2022-12-29T03:33:04;12.50;99.90
19945;DHT22;10134;50.952;6.930;2022-12-29T03:35:37;12.50;99.90
19945;DHT22;10134;50.952;6.930;2022-12-29T03:40:49;12.50;99.90
19945;DHT22;10134;50.952;6.930;2022-12-29T03:43:17;12.50;99.90
19945;DHT22;10134;50.952;6.930;2022-12-29T03:45:46;12.50;99.90
19945;DHT22;10134;50.952;6.930;2022-12-29T03:48:13;12.50;99.90
19945;DHT22;10134;50.952;6.930;2022-12-29T03:50:41;12.60;99.90
19945;DHT22;10134;50.952;6.930;2022-12-29T03:53:09;12.50;99.90
19945;DHT22;10134;50.952;6.930;2022-12-29T03:55:37;12.50;99.90
19945;DHT22;10134;50.952;6.930;2022-12-29T03:58:04;12.40;99.90
19945;DHT22;10134;50.952;6.930;2022-12-29T04:00:47;12.40;99.90
19945;DHT22;10134;50.952;6.930;2022-12-29T04:03:15;12.40;99.90
19945;DHT22;10134;50.952;6.930;2022-12-29T04:05:44;12.30;99.90
19945;DHT22;10134;50.952;6.930;2022-12-29T04:08:11;12.30;99.90
19945;DHT22;10134;50.952;6.930;2022-12-29T04:10:39;12.30;99.90
19945;DHT22;10134;50.952;6.930;2022-12-29T04:13:07;12.30;99.90
19945;DHT22;10134;50.952;6.930;2022-12-29T04:15:34;12.30;99.90
19945;DHT22;10134;50.952;6.930;2022-12-29T04:18:02;12.30;99.90
19945;DHT22;10134;50.952;6.930;2022-12-29T04:20:29;12.20;99.90
19945;DHT22;10134;50.952;6.930;2022-12-29T04:23:15;12.20;99.90
19945;DHT22;10134;50.952;6.930;2022-12-29T04:25:45;12.20;99.90
19945;DHT22;10134;50.952;6.930;2022-12-29T04:28:15;12.20;99.90
19945;DHT22;10134;50.952;6.930;2022-12-29T04:30:59;12.10;99.90
19945;DHT22;10134;50.952;6.930;2022-12-29T04:33:35;12.10;99.90
19945;DHT22;10134;50.952;6.930;2022-12-29T04:36:03;12.10;99.90
19945;DHT22;10134;50.952;6.930;2022-12-29T04:38:30;12.10;99.90
19945;DHT22;10134;50.952;6.930;2022-12-29T04:41:00;12.10;99.90
19945;DHT22;10134;50.952;6.930;2022-12-29T04:43:29;12.10;99.90
19945;DHT22;10134;50.952;6.930;2022-12-29T04:46:12;12.10;99.90
19945;DHT22;10134;50.952;6.930;2022-12-29T04:48:49;12.20;99.90
19945;DHT22;10134;50.952;6.930;2022-12-29T04:51:26;12.20;99.90
19945;DHT22;10134;50.952;6.930;2022-12-29T04:53:53;12.20;99.90
19945;DHT22;10134;50.952;6.930;2022-12-29T04:56:20;12.30;99.90
19945;DHT22;10134;50.952;6.930;2022-12-29T04:58:48;12.30;99.90
19945;DHT22;10134;50.952;6.930;2022-12-29T05:01:15;12.30;99.90
19945;DHT22;10134;50.952;6.930;2022-12-29T05:03:43;12.30;99.90
19945;DHT22;10134;50.952;6.930;2022-12-29T05:06:10;12.40;99.90
19945;DHT22;10134;50.952;6.930;2022-12-29T05:08:38;12.40;99.90
19945;DHT22;10134;50.952;6.930;2022-12-29T05:11:05;12.30;99.90
19945;DHT22;10134;50.952;6.930;2022-12-29T05:13:33;12.30;99.90
19945;DHT22;10134;50.952;6.930;2022-12-29T05:16:01;12.30;99.90
19945;DHT22;10134;50.952;6.930;2022-12-29T05:18:29;12.30;99.90
19945;DHT22;10134;50.952;6.930;2022-12-29T05:20:58;12.30;99.90
19945;DHT22;10134;50.952;6.930;2022-12-29T05:23:25;12.30;99.90
19945;DHT22;10134;50.952;6.930;2022-12-29T05:25:58;12.30;99.90
19945;DHT22;10134;50.952;6.930;2022-12-29T05:28:44;12.30;99.90
19945;DHT22;10134;50.952;6.930;2022-12-29T05:31:16;12.30;99.90
19945;DHT22;10134;50.952;6.930;2022-12-29T05:33:44;12.30;99.90
19945;DHT22;10134;50.952;6.930;2022-12-29T05:36:12;12.30;99.90
19945;DHT22;10134;50.952;6.930;2022-12-29T05:38:44;12.30;99.90
19945;DHT22;10134;50.952;6.930;2022-12-29T05:41:12;12.20;99.90
19945;DHT22;10134;50.952;6.930;2022-12-29T05:44:06;12.30;99.90
19945;DHT22;10134;50.952;6.930;2022-12-29T05:46:53;12.30;99.90
19945;DHT22;10134;50.952;6.930;2022-12-29T05:49:42;12.30;99.90
19945;DHT22;10134;50.952;6.930;2022-12-29T05:52:35;12.30;99.90
19945;DHT22;10134;50.952;6.930;2022-12-29T05:55:03;12.30;99.90
19945;DHT22;10134;50.952;6.930;2022-12-29T05:57:32;12.30;99.90
19945;DHT22;10134;50.952;6.930;2022-12-29T06:00:09;12.30;99.90
19945;DHT22;10134;50.952;6.930;2022-12-29T06:02:45;12.30;99.90
19945;DHT22;10134;50.952;6.930;2022-12-29T06:05:15;12.40;99.90
19945;DHT22;10134;50.952;6.930;2022-12-29T06:07:42;12.40;99.90
19945;DHT22;10134;50.952;6.930;2022-12-29T06:10:14;12.40;99.90
19945;DHT22;10134;50.952;6.930;2022-12-29T06:12:53;12.40;99.90
19945;DHT22;10134;50.952;6.930;2022-12-29T06:15:20;12.40;99.90
19945;DHT22;10134;50.952;6.930;2022-12-29T06:17:53;12.40;99.90
19945;DHT22;10134;50.952;6.930;2022-12-29T06:20:20;12.40;99.90
19945;DHT22;10134;50.952;6.930;2022-12-29T06:22:47;12.40;99.90
19945;DHT22;10134;50.952;6.930;2022-12-29T06:25:15;12.40;99.90
19945;DHT22;10134;50.952;6.930;2022-12-29T06:27:44;12.40;99.90
19945;DHT22;10134;50.952;6.930;2022-12-29T06:30:11;12.40;99.90
19945;DHT22;10134;50.952;6.930;2022-12-29T06:32:40;12.40;99.90
19945;DHT22;10134;50.952;6.930;2022-12-29T06:35:10;12.40;99.90
19945;DHT22;10134;50.952;6.930;2022-12-29T06:37:43;12.50;99.90
19945;DHT22;10134;50.952;6.930;2022-12-29T06:40:10;12.50;99.90
19945;DHT22;10134;50.952;6.930;2022-12-29T06:42:56;12.50;99.90
19945;DHT22;10134;50.952;6.930;2022-12-29T06:45:50;12.50;99.90
19945;DHT22;10134;50.952;6.930;2022-12-29T06:48:17;12.50;99.90
19945;DHT22;10134;50.952;6.930;2022-12-29T06:50:44;12.50;99.90
19945;DHT22;10134;50.952;6.930;2022-12-29T06:53:12;12.50;99.90
19945;DHT22;10134;50.952;6.930;2022-12-29T06:55:41;12.50;99.90
19945;DHT22;10134;50.952;6.930;2022-12-29T06:58:09;12.50;99.90
19945;DHT22;10134;50.952;6.930;2022-12-29T07:00:36;12.50;99.90
19945;DHT22;10134;50.952;6.930;2022-12-29T07:03:03;12.50;99.90
19945;DHT22;10134;50.952;6.930;2022-12-29T07:05:33;12.50;99.90
19945;DHT22;10134;50.952;6.930;2022-12-29T07:08:02;12.50;99.90
19945;DHT22;10134;50.952;6.930;2022-12-29T07:10:32;12.50;99.90
19945;DHT22;10134;50.952;6.930;2022-12-29T07:12:59;12.50;99.90
19945;DHT22;10134;50.952;6.930;2022-12-29T07:15:27;12.50;99.90
19945;DHT22;10134;50.952;6.930;2022-12-29T07:17:54;12.50;99.90
19945;DHT22;10134;50.952;6.930;2022-12-29T07:20:21;12.50;99.90
19945;DHT22;10134;50.952;6.930;2022-12-29T07:22:53;12.50;99.90
19945;DHT22;10134;50.952;6.930;2022-12-29T07:25:21;12.50;99.90
19945;DHT22;10134;50.952;6.930;2022-12-29T07:27:48;12.50;99.90
19945;DHT22;10134;50.952;6.930;2022-12-29T07:30:16;12.50;99.90
19945;DHT22;10134;50.952;6.930;2022-12-29T07:32:43;12.50;99.90
19945;DHT22;10134;50.952;6.930;2022-12-29T07:35:10;12.50;99.90
19945;DHT22;10134;50.952;6.930;2022-12-29T07:37:38;12.40;99.90
19945;DHT22;10134;50.952;6.930;2022-12-29T07:40:06;12.50;99.90
19945;DHT22;10134;50.952;6.930;2022-12-29T07:42:33;12.40;99.90
19945;DHT22;10134;50.952;6.930;2022-12-29T07:45:01;12.40;99.90
19945;DHT22;10134;50.952;6.930;2022-12-29T07:47:48;12.40;99.90
19945;DHT22;10134;50.952;6.930;2022-12-29T07:50:16;12.40;99.90
19945;DHT22;10134;50.952;6.930;2022-12-29T07:52:44;12.40;99.90
19945;DHT22;10134;50.952;6.930;2022-12-29T07:55:12;12.30;99.90
19945;DHT22;10134;50.952;6.930;2022-12-29T07:57:39;12.30;99.90
19945;DHT22;10134;50.952;6.930;2022-12-29T08:00:07;12.30;99.90
19945;DHT22;10134;50.952;6.930;2022-12-29T08:02:38;12.30;99.90
19945;DHT22;10134;50.952;6.930;2022-12-29T08:05:05;12.30;99.90
19945;DHT22;10134;50.952;6.930;2022-12-29T08:07:33;12.30;99.90
19945;DHT22;10134;50.952;6.930;2022-12-29T08:10:00;12.40;99.90
19945;DHT22;10134;50.952;6.930;2022-12-29T08:12:28;12.40;99.90
19945;DHT22;10134;50.952;6.930;2022-12-29T08:14:58;12.40;99.90
19945;DHT22;10134;50.952;6.930;2022-12-29T08:17:25;12.40;99.90
19945;DHT22;10134;50.952;6.930;2022-12-29T08:19:52;12.30;99.90
19945;DHT22;10134;50.952;6.930;2022-12-29T08:22:19;12.30;99.90
19945;DHT22;10134;50.952;6.930;2022-12-29T08:24:47;12.30;99.90
19945;DHT22;10134;50.952;6.930;2022-12-29T08:27:15;12.30;99.90
19945;DHT22;10134;50.952;6.930;2022-12-29T08:29:47;12.30;99.90
19945;DHT22;10134;50.952;6.930;2022-12-29T08:32:15;12.30;99.90
19945;DHT22;10134;50.952;6.930;2022-12-29T08:34:42;12.30;99.90
19945;DHT22;10134;50.952;6.930;2022-12-29T08:37:10;12.20;99.90
19945;DHT22;10134;50.952;6.930;2022-12-29T08:39:37;12.20;99.90
19945;DHT22;10134;50.952;6.930;2022-12-29T08:42:05;12.10;99.90
19945;DHT22;10134;50.952;6.930;2022-12-29T08:44:32;12.10;99.90
19945;DHT22;10134;50.952;6.930;2022-12-29T08:47:00;12.10;99.90
19945;DHT22;10134;50.952;6.930;2022-12-29T08:49:28;12.10;99.90
19945;DHT22;10134;50.952;6.930;2022-12-29T08:51:55;12.10;99.90
19945;DHT22;10134;50.952;6.930;2022-12-29T08:54:22;12.10;99.90
19945;DHT22;10134;50.952;6.930;2022-12-29T08:56:50;12.10;99.90
19945;DHT22;10134;50.952;6.930;2022-12-29T08:59:18;12.10;99.90
19945;DHT22;10134;50.952;6.930;2022-12-29T09:01:47;12.10;99.90
19945;DHT22;10134;50.952;6.930;2022-12-29T09:04:15;12.10;99.90
19945;DHT22;10134;50.952;6.930;2022-12-29T09:06:45;12.10;99.90
19945;DHT22;10134;50.952;6.930;2022-12-29T09:09:12;12.10;99.90
19945;DHT22;10134;50.952;6.930;2022-12-29T09:11:43;12.10;99.90
19945;DHT22;10134;50.952;6.930;2022-12-29T09:14:11;12.10;99.90
19945;DHT22;10134;50.952;6.930;2022-12-29T09:16:39;12.10;99.90
19945;DHT22;10134;50.952;6.930;2022-12-29T09:19:26;12.10;99.90
19945;DHT22;10134;50.952;6.930;2022-12-29T09:21:53;12.10;99.90
19945;DHT22;10134;50.952;6.930;2022-12-29T09:24:20;12.10;99.90
19945;DHT22;10134;50.952;6.930;2022-12-29T09:26:48;12.20;99.90
19945;DHT22;10134;50.952;6.930;2022-12-29T09:29:15;12.20;99.90
19945;DHT22;10134;50.952;6.930;2022-12-29T09:31:42;12.20;99.90
19945;DHT22;10134;50.952;6.930;2022-12-29T09:34:10;12.30;99.90
19945;DHT22;10134;50.952;6.930;2022-12-29T09:36:37;12.30;99.90
19945;DHT22;10134;50.952;6.930;2022-12-29T09:39:04;12.30;99.90
19945;DHT22;10134;50.952;6.930;2022-12-29T09:41:46;12.30;99.90
19945;DHT22;10134;50.952;6.930;2022-12-29T09:44:29;12.30;99.90
19945;DHT22;10134;50.952;6.930;2022-12-29T09:46:59;12.40;99.90
19945;DHT22;10134;50.952;6.930;2022-12-29T09:49:44;12.40;99.90
19945;DHT22;10134;50.952;6.930;2022-12-29T09:52:21;12.40;99.90
19945;DHT22;10134;50.952;6.930;2022-12-29T09:55:03;12.40;99.90
19945;DHT22;10134;50.952;6.930;2022-12-29T09:57:47;12.50;99.90
19945;DHT22;10134;50.952;6.930;2022-12-29T10:00:36;12.50;99.90
19945;DHT22;10134;50.952;6.930;2022-12-29T10:10:18;12.60;99.90
19945;DHT22;10134;50.952;6.930;2022-12-29T10:20:27;12.60;99.90
19945;DHT22;10134;50.952;6.930;2022-12-29T10:23:28;12.60;99.90
19945;DHT22;10134;50.952;6.930;2022-12-29T10:25:58;12.60;99.90
19945;DHT22;10134;50.952;6.930;2022-12-29T10:28:33;12.60;99.90
19945;DHT22;10134;50.952;6.930;2022-12-29T10:31:05;12.70;99.90
19945;DHT22;10134;50.952;6.930;2022-12-29T10:33:39;12.70;99.90
19945;DHT22;10134;50.952;6.930;2022-12-29T10:36:15;12.70;99.90
19945;DHT22;10134;50.952;6.930;2022-12-29T10:42:14;12.80;99.90
19945;DHT22;10134;50.952;6.930;2022-12-29T10:44:43;12.80;99.90
19945;DHT22;10134;50.952;6.930;2022-12-29T10:47:16;12.90;99.90
19945;DHT22;10134;50.952;6.930;2022-12-29T10:49:48;12.90;99.90
19945;DHT22;10134;50.952;6.930;2022-12-29T10:52:17;13.00;99.90
19945;DHT22;10134;50.952;6.930;2022-12-29T10:55:00;13.00;99.90
19945;DHT22;10134;50.952;6.930;2022-12-29T10:57:34;13.10;99.90
19945;DHT22;10134;50.952;6.930;2022-12-29T11:00:18;13.10;99.90
19945;DHT22;10134;50.952;6.930;2022-12-29T11:03:17;13.10;99.90
19945;DHT22;10134;50.952;6.930;2022-12-29T11:06:00;13.10;99.90
19945;DHT22;10134;50.952;6.930;2022-12-29T11:08:33;13.20;99.90
19945;DHT22;10134;50.952;6.930;2022-12-29T11:11:04;13.20;99.90
19945;DHT22;10134;50.952;6.930;2022-12-29T11:16:40;13.30;99.90
19945;DHT22;10134;50.952;6.930;2022-12-29T11:19:22;13.40;99.60
19945;DHT22;10134;50.952;6.930;2022-12-29T11:21:50;13.40;99.40
19945;DHT22;10134;50.952;6.930;2022-12-29T11:26:55;13.40;98.90
19945;DHT22;10134;50.952;6.930;2022-12-29T11:29:43;13.30;99.10
19945;DHT22;10134;50.952;6.930;2022-12-29T11:32:22;13.30;99.30
19945;DHT22;10134;50.952;6.930;2022-12-29T11:34:58;13.40;99.40
19945;DHT22;10134;50.952;6.930;2022-12-29T11:37:39;13.40;99.50
19945;DHT22;10134;50.952;6.930;2022-12-29T11:40:16;13.50;99.60
19945;DHT22;10134;50.952;6.930;2022-12-29T11:42:51;13.50;99.10
19945;DHT22;10134;50.952;6.930;2022-12-29T11:45:22;13.50;98.90
19945;DHT22;10134;50.952;6.930;2022-12-29T11:47:57;13.60;98.80
19945;DHT22;10134;50.952;6.930;2022-12-29T11:50:28;13.60;98.80
19945;DHT22;10134;50.952;6.930;2022-12-29T11:53:02;13.60;98.70
19945;DHT22;10134;50.952;6.930;2022-12-29T11:55:31;13.60;98.70
19945;DHT22;10134;50.952;6.930;2022-12-29T11:58:02;13.60;98.40
19945;DHT22;10134;50.952;6.930;2022-12-29T12:00:34;13.60;98.50
19945;DHT22;10134;50.952;6.930;2022-12-29T12:03:22;13.60;98.30
19945;DHT22;10134;50.952;6.930;2022-12-29T12:05:57;13.60;98.00
19945;DHT22;10134;50.952;6.930;2022-12-29T12:08:33;13.60;97.60
19945;DHT22;10134;50.952;6.930;2022-12-29T12:11:35;13.70;97.70
19945;DHT22;10134;50.952;6.930;2022-12-29T12:14:26;13.70;97.70
19945;DHT22;10134;50.952;6.930;2022-12-29T12:28:55;13.50;98.20
19945;DHT22;10134;50.952;6.930;2022-12-29T12:34:04;13.60;98.20
19945;DHT22;10134;50.952;6.930;2022-12-29T12:48:11;13.50;98.90
19945;DHT22;10134;50.952;6.930;2022-12-29T12:51:23;13.60;99.00
19945;DHT22;10134;50.952;6.930;2022-12-29T13:02:17;13.40;99.30
19945;DHT22;10134;50.952;6.930;2022-12-29T13:05:09;13.40;99.50
19945;DHT22;10134;50.952;6.930;2022-12-29T13:07:44;13.40;99.60
19945;DHT22;10134;50.952;6.930;2022-12-29T13:10:28;13.40;99.40
19945;DHT22;10134;50.952;6.930;2022-12-29T13:19:13;13.40;98.90
19945;DHT22;10134;50.952;6.930;2022-12-29T13:21:55;13.40;98.90
19945;DHT22;10134;50.952;6.930;2022-12-29T13:24:50;13.30;98.80
19945;DHT22;10134;50.952;6.930;2022-12-29T13:30:19;13.30;99.10
19945;DHT22;10134;50.952;6.930;2022-12-29T13:36:00;13.30;99.60
19945;DHT22;10134;50.952;6.930;2022-12-29T13:43:58;13.20;99.90
19945;DHT22;10134;50.952;6.930;2022-12-29T13:46:40;13.10;99.90
19945;DHT22;10134;50.952;6.930;2022-12-29T13:49:16;13.10;99.90
19945;DHT22;10134;50.952;6.930;2022-12-29T13:51:57;13.10;99.90
19945;DHT22;10134;50.952;6.930;2022-12-29T13:59:57;13.00;99.90
19945;DHT22;10134;50.952;6.930;2022-12-29T14:05:05;12.90;99.90
19945;DHT22;10134;50.952;6.930;2022-12-29T14:08:16;12.90;99.90
19945;DHT22;10134;50.952;6.930;2022-12-29T14:10:50;12.90;99.90
19945;DHT22;10134;50.952;6.930;2022-12-29T14:13:23;12.90;99.90
19945;DHT22;10134;50.952;6.930;2022-12-29T14:15:54;12.90;99.90
19945;DHT22;10134;50.952;6.930;2022-12-29T14:18:29;12.80;99.90
19945;DHT22;10134;50.952;6.930;2022-12-29T14:35:46;12.80;99.90
19945;DHT22;10134;50.952;6.930;2022-12-29T14:38:19;12.80;99.90
19945;DHT22;10134;50.952;6.930;2022-12-29T14:40:48;12.90;99.90
19945;DHT22;10134;50.952;6.930;2022-12-29T14:43:25;12.90;99.90
19945;DHT22;10134;50.952;6.930;2022-12-29T14:45:59;12.90;99.90
19945;DHT22;10134;50.952;6.930;2022-12-29T14:48:41;12.90;99.90
19945;DHT22;10134;50.952;6.930;2022-12-29T14:59:40;12.70;99.90
19945;DHT22;10134;50.952;6.930;2022-12-29T15:02:43;12.60;99.90
19945;DHT22;10134;50.952;6.930;2022-12-29T15:05:48;12.60;99.90
19945;DHT22;10134;50.952;6.930;2022-12-29T15:08:22;12.50;99.90
19945;DHT22;10134;50.952;6.930;2022-12-29T15:10:58;12.50;99.90
19945;DHT22;10134;50.952;6.930;2022-12-29T15:13:36;12.40;99.90
19945;DHT22;10134;50.952;6.930;2022-12-29T15:16:17;12.40;99.90
19945;DHT22;10134;50.952;6.930;2022-12-29T15:19:54;12.40;99.90
19945;DHT22;10134;50.952;6.930;2022-12-29T15:27:45;12.20;99.90
19945;DHT22;10134;50.952;6.930;2022-12-29T15:33:22;11.90;99.90
19945;DHT22;10134;50.952;6.930;2022-12-29T15:35:51;11.90;99.90
19945;DHT22;10134;50.952;6.930;2022-12-29T15:38:30;11.80;99.90
19945;DHT22;10134;50.952;6.930;2022-12-29T15:44:26;11.70;99.90
19945;DHT22;10134;50.952;6.930;2022-12-29T15:46:56;11.70;99.90
19945;DHT22;10134;50.952;6.930;2022-12-29T15:53:50;11.60;99.90
19945;DHT22;10134;50.952;6.930;2022-12-29T15:56:48;11.50;99.90
19945;DHT22;10134;50.952;6.930;2022-12-29T16:16:59;11.20;99.90
19945;DHT22;10134;50.952;6.930;2022-12-29T16:22:00;11.10;99.90
19945;DHT22;10134;50.952;6.930;2022-12-29T16:24:31;11.10;99.90
19945;DHT22;10134;50.952;6.930;2022-12-29T16:27:07;11.00;99.90
19945;DHT22;10134;50.952;6.930;2022-12-29T16:29:37;11.00;99.90
19945;DHT22;10134;50.952;6.930;2022-12-29T16:32:26;10.90;99.90
19945;DHT22;10134;50.952;6.930;2022-12-29T16:35:25;10.90;99.90
19945;DHT22;10134;50.952;6.930;2022-12-29T16:40:57;10.80;99.90
19945;DHT22;10134;50.952;6.930;2022-12-29T16:43:26;10.80;99.90
19945;DHT22;10134;50.952;6.930;2022-12-29T16:48:28;10.70;99.90
19945;DHT22;10134;50.952;6.930;2022-12-29T16:51:05;10.70;99.90
19945;DHT22;10134;50.952;6.930;2022-12-29T16:53:36;10.70;99.90
19945;DHT22;10134;50.952;6.930;2022-12-29T16:56:17;10.70;99.90
19945;DHT22;10134;50.952;6.930;2022-12-29T16:58:50;10.60;99.90
19945;DHT22;10134;50.952;6.930;2022-12-29T17:01:19;10.60;99.90
19945;DHT22;10134;50.952;6.930;2022-12-29T17:03:53;10.60;99.90
19945;DHT22;10134;50.952;6.930;2022-12-29T17:06:22;10.60;99.90
19945;DHT22;10134;50.952;6.930;2022-12-29T17:08:51;10.50;99.90
19945;DHT22;10134;50.952;6.930;2022-12-29T17:11:32;10.50;99.90
19945;DHT22;10134;50.952;6.930;2022-12-29T17:18:01;10.50;99.90
19945;DHT22;10134;50.952;6.930;2022-12-29T17:20:26;10.40;99.90
19945;DHT22;10134;50.952;6.930;2022-12-29T17:22:56;10.40;99.90
19945;DHT22;10134;50.952;6.930;2022-12-29T17:25:36;10.40;99.90
19945;DHT22;10134;50.952;6.930;2022-12-29T17:28:21;10.40;99.90
19945;DHT22;10134;50.952;6.930;2022-12-29T17:30:50;10.40;99.90
19945;DHT22;10134;50.952;6.930;2022-12-29T17:33:19;10.40;99.90
19945;DHT22;10134;50.952;6.930;2022-12-29T17:35:47;10.40;99.90
19945;DHT22;10134;50.952;6.930;2022-12-29T17:38:30;10.30;99.90
19945;DHT22;10134;50.952;6.930;2022-12-29T17:40:58;10.30;99.90
19945;DHT22;10134;50.952;6.930;2022-12-29T17:43:26;10.30;99.90
19945;DHT22;10134;50.952;6.930;2022-12-29T17:46:04;10.30;99.90
19945;DHT22;10134;50.952;6.930;2022-12-29T17:48:32;10.30;99.90
19945;DHT22;10134;50.952;6.930;2022-12-29T17:51:00;10.30;99.90
19945;DHT22;10134;50.952;6.930;2022-12-29T17:53:28;10.30;99.90
19945;DHT22;10134;50.952;6.930;2022-12-29T17:55:56;10.30;99.90
19945;DHT22;10134;50.952;6.930;2022-12-29T17:58:27;10.30;99.90
19945;DHT22;10134;50.952;6.930;2022-12-29T18:00:56;10.20;99.90
19945;DHT22;10134;50.952;6.930;2022-12-29T18:03:36;10.20;99.90
19945;DHT22;10134;50.952;6.930;2022-12-29T18:06:05;10.20;99.90
19945;DHT22;10134;50.952;6.930;2022-12-29T18:08:35;10.30;99.90
19945;DHT22;10134;50.952;6.930;2022-12-29T18:11:02;10.30;99.90
19945;DHT22;10134;50.952;6.930;2022-12-29T18:13:31;10.30;99.90
19945;DHT22;10134;50.952;6.930;2022-12-29T18:16:12;10.30;99.90
19945;DHT22;10134;50.952;6.930;2022-12-29T18:18:40;10.40;99.90
19945;DHT22;10134;50.952;6.930;2022-12-29T18:21:25;10.40;99.90
19945;DHT22;10134;50.952;6.930;2022-12-29T18:23:53;10.40;99.90
19945;DHT22;10134;50.952;6.930;2022-12-29T18:26:25;10.50;99.90
19945;DHT22;10134;50.952;6.930;2022-12-29T18:28:58;10.50;99.90
19945;DHT22;10134;50.952;6.930;2022-12-29T18:31:30;10.50;99.90
19945;DHT22;10134;50.952;6.930;2022-12-29T18:33:59;10.50;99.90
19945;DHT22;10134;50.952;6.930;2022-12-29T18:36:27;10.50;99.90
19945;DHT22;10134;50.952;6.930;2022-12-29T18:38:55;10.50;99.90
19945;DHT22;10134;50.952;6.930;2022-12-29T18:41:27;10.50;99.90
19945;DHT22;10134;50.952;6.930;2022-12-29T18:43:57;10.40;99.90
19945;DHT22;10134;50.952;6.930;2022-12-29T18:46:25;10.40;99.90
19945;DHT22;10134;50.952;6.930;2022-12-29T18:48:53;10.40;99.90
19945;DHT22;10134;50.952;6.930;2022-12-29T18:51:23;10.30;99.90
19945;DHT22;10134;50.952;6.930;2022-12-29T18:53:51;10.30;99.90
19945;DHT22;10134;50.952;6.930;2022-12-29T18:56:21;10.30;99.90
19945;DHT22;10134;50.952;6.930;2022-12-29T18:58:49;10.20;99.90
19945;DHT22;10134;50.952;6.930;2022-12-29T19:01:23;10.20;99.90
19945;DHT22;10134;50.952;6.930;2022-12-29T19:03:51;10.30;99.90
19945;DHT22;10134;50.952;6.930;2022-12-29T19:06:19;10.30;99.90
19945;DHT22;10134;50.952;6.930;2022-12-29T19:08:47;10.30;99.90
19945;DHT22;10134;50.952;6.930;2022-12-29T19:11:15;10.30;99.90
19945;DHT22;10134;50.952;6.930;2022-12-29T19:13:44;10.30;99.90
19945;DHT22;10134;50.952;6.930;2022-12-29T19:16:21;10.30;99.90
19945;DHT22;10134;50.952;6.930;2022-12-29T19:18:49;10.30;99.90